createdAt,value
2018-12-17T00:01:12.170Z,96.70
2018-12-17T00:03:39.792Z,96.90
2018-12-17T00:06:07.621Z,97.70
2018-12-17T00:08:35.743Z,96.30
2018-12-17T00:11:04.300Z,95.10
2018-12-17T00:13:32.120Z,96.10
2018-12-17T00:16:00.407Z,97.30
2018-12-17T00:18:28.274Z,98.00
2018-12-17T00:20:55.883Z,98.60
2018-12-17T00:23:23.915Z,98.10
2018-12-17T00:25:52.896Z,96.50
2018-12-17T00:28:21.261Z,95.70
2018-12-17T00:30:49.034Z,95.60
2018-12-17T00:33:16.662Z,95.20
2018-12-17T00:35:44.323Z,95.40
2018-12-17T00:38:12.171Z,96.10
2018-12-17T00:40:40.023Z,96.90
2018-12-17T00:43:07.983Z,96.70
2018-12-17T00:45:35.673Z,96.20
2018-12-17T00:48:03.303Z,95.60
2018-12-17T00:50:31.051Z,95.30
2018-12-17T00:52:58.722Z,95.20
2018-12-17T00:55:26.385Z,94.90
2018-12-17T00:57:53.980Z,93.50
2018-12-17T01:00:21.599Z,93.70
2018-12-17T01:02:50.663Z,94.40
2018-12-17T01:05:18.305Z,92.30
2018-12-17T01:07:46.703Z,92.40
2018-12-17T01:10:14.482Z,93.30
2018-12-17T01:12:42.121Z,94.40
2018-12-17T01:15:09.868Z,94.10
2018-12-17T01:17:37.611Z,94.50
2018-12-17T01:20:06.314Z,95.40
2018-12-17T01:22:34.258Z,96.00
2018-12-17T01:25:01.897Z,95.80
2018-12-17T01:27:30.297Z,95.00
2018-12-17T01:29:58.183Z,94.90
2018-12-17T01:32:26.006Z,94.30
2018-12-17T01:34:53.890Z,93.80
2018-12-17T01:37:21.517Z,93.50
2018-12-17T01:39:49.306Z,94.20
2018-12-17T01:42:17.969Z,93.20
2018-12-17T01:44:45.659Z,93.10
2018-12-17T01:47:13.886Z,93.50
2018-12-17T01:49:41.502Z,93.30
2018-12-17T01:52:09.042Z,93.00
2018-12-17T01:54:36.775Z,92.80
2018-12-17T01:57:05.198Z,92.60
2018-12-17T01:59:33.108Z,91.90
2018-12-17T02:02:00.713Z,91.80
2018-12-17T02:04:28.485Z,91.80
2018-12-17T02:06:56.670Z,92.90
2018-12-17T02:09:24.915Z,93.00
2018-12-17T02:11:53.151Z,92.10
2018-12-17T02:14:21.053Z,92.00
2018-12-17T02:16:48.850Z,93.20
2018-12-17T02:19:16.849Z,94.90
2018-12-17T02:21:45.282Z,95.90
2018-12-17T02:24:13.462Z,96.70
2018-12-17T02:26:41.723Z,96.70
2018-12-17T02:29:09.819Z,96.90
2018-12-17T02:31:37.855Z,96.40
2018-12-17T02:34:05.760Z,96.20
2018-12-17T02:36:33.894Z,95.30
2018-12-17T02:39:01.515Z,94.50
2018-12-17T02:41:29.511Z,93.90
2018-12-17T02:43:58.695Z,93.40
2018-12-17T02:46:26.665Z,91.70
2018-12-17T02:48:54.962Z,89.70
2018-12-17T02:51:23.441Z,90.30
2018-12-17T02:53:51.414Z,91.40
2018-12-17T02:56:18.992Z,92.00
2018-12-17T02:58:47.419Z,93.20
2018-12-17T03:01:15.066Z,94.20
2018-12-17T03:03:42.912Z,93.90
2018-12-17T03:06:11.022Z,93.60
2018-12-17T03:08:39.507Z,93.20
2018-12-17T03:11:07.569Z,93.40
2018-12-17T03:13:36.382Z,93.40
2018-12-17T03:16:04.775Z,93.40
2018-12-17T03:18:32.519Z,92.60
2018-12-17T03:21:00.841Z,92.10
2018-12-17T03:23:28.440Z,91.80
2018-12-17T03:25:56.220Z,92.10
2018-12-17T03:28:24.021Z,92.10
2018-12-17T03:30:52.578Z,92.40
2018-12-17T03:33:20.291Z,93.00
2018-12-17T03:35:48.096Z,93.50
2018-12-17T03:38:15.831Z,93.00
2018-12-17T03:40:43.866Z,92.60
2018-12-17T03:43:11.453Z,92.80
2018-12-17T03:45:39.717Z,92.30
2018-12-17T03:48:07.451Z,92.50
2018-12-17T03:50:35.052Z,92.10
2018-12-17T03:53:02.670Z,92.00
2018-12-17T03:55:30.338Z,91.60
2018-12-17T03:57:58.256Z,91.70
2018-12-17T04:00:26.110Z,91.50
2018-12-17T04:02:54.315Z,91.10
2018-12-17T04:05:22.594Z,91.20
2018-12-17T04:07:51.042Z,91.40
2018-12-17T04:10:18.613Z,91.20
2018-12-17T04:12:46.575Z,90.90
2018-12-17T04:15:14.207Z,90.90
2018-12-17T04:17:41.893Z,91.10
2018-12-17T04:20:10.566Z,91.50
2018-12-17T04:22:38.779Z,92.40
2018-12-17T04:25:07.082Z,91.80
2018-12-17T04:27:35.139Z,91.40
2018-12-17T04:30:04.433Z,91.40
2018-12-17T04:32:32.164Z,91.30
2018-12-17T04:34:59.879Z,91.50
2018-12-17T04:37:27.575Z,92.20
2018-12-17T04:39:56.343Z,92.60
2018-12-17T04:42:24.032Z,91.70
2018-12-17T04:44:52.185Z,91.30
2018-12-17T04:47:19.793Z,91.60
2018-12-17T04:49:47.436Z,91.40
2018-12-17T04:52:15.167Z,91.90
2018-12-17T04:54:42.950Z,91.90
2018-12-17T04:57:11.437Z,92.00
2018-12-17T04:59:39.924Z,92.10
2018-12-17T05:02:07.759Z,91.60
2018-12-17T05:04:35.450Z,92.10
2018-12-17T05:07:03.119Z,92.40
2018-12-17T05:09:30.688Z,91.50
2018-12-17T05:11:58.358Z,91.10
2018-12-17T05:14:26.470Z,91.80
2018-12-17T05:16:54.145Z,92.30
2018-12-17T05:19:22.367Z,93.10
2018-12-17T05:21:51.203Z,93.00
2018-12-17T05:24:18.923Z,92.80
2018-12-17T05:26:47.726Z,92.20
2018-12-17T05:29:21.535Z,92.10
2018-12-17T05:31:46.282Z,92.40
2018-12-17T05:34:14.015Z,92.70
2018-12-17T05:36:41.794Z,92.50
2018-12-17T05:39:10.347Z,92.50
2018-12-17T05:41:38.257Z,92.00
2018-12-17T05:44:06.002Z,91.40
2018-12-17T05:46:33.838Z,90.00
2018-12-17T05:49:01.535Z,89.00
2018-12-17T05:51:29.515Z,87.90
2018-12-17T05:53:57.059Z,88.90
2018-12-17T05:56:25.448Z,89.60
2018-12-17T05:58:53.704Z,89.40
2018-12-17T06:01:22.106Z,88.60
2018-12-17T06:03:49.743Z,89.30
2018-12-17T06:06:17.879Z,90.30
2018-12-17T06:08:45.537Z,90.40
2018-12-17T06:11:13.267Z,91.00
2018-12-17T06:13:41.423Z,90.80
2018-12-17T06:16:09.757Z,92.00
2018-12-17T06:18:37.985Z,91.30
2018-12-17T06:21:06.089Z,91.70
2018-12-17T06:23:34.789Z,90.90
2018-12-17T06:26:02.953Z,90.80
2018-12-17T06:28:30.807Z,91.00
2018-12-17T06:30:59.176Z,90.40
2018-12-17T06:33:27.210Z,87.40
2018-12-17T06:35:55.317Z,87.20
2018-12-17T06:38:23.998Z,85.80
2018-12-17T06:40:52.037Z,87.20
2018-12-17T06:43:19.695Z,89.20
2018-12-17T06:45:48.687Z,89.50
2018-12-17T06:48:17.196Z,89.00
2018-12-17T06:50:46.118Z,89.00
2018-12-17T06:53:14.024Z,86.60
2018-12-17T06:55:41.788Z,87.50
2018-12-17T06:58:09.970Z,87.30
2018-12-17T07:00:38.149Z,85.90
2018-12-17T07:03:07.038Z,86.20
2018-12-17T07:05:35.295Z,87.40
2018-12-17T07:08:04.418Z,87.40
2018-12-17T07:10:32.055Z,86.50
2018-12-17T07:12:59.888Z,87.50
2018-12-17T07:15:28.201Z,88.80
2018-12-17T07:17:56.041Z,89.10
2018-12-17T07:20:23.661Z,90.10
2018-12-17T07:22:51.337Z,90.20
2018-12-17T07:25:19.636Z,90.30
2018-12-17T07:27:47.950Z,90.90
2018-12-17T07:30:16.998Z,91.80
2018-12-17T07:32:45.005Z,92.50
2018-12-17T07:35:12.814Z,92.80
2018-12-17T07:37:41.557Z,92.90
2018-12-17T07:40:09.406Z,93.10
2018-12-17T07:42:38.538Z,92.20
2018-12-17T07:45:07.204Z,92.20
2018-12-17T07:47:35.097Z,92.70
2018-12-17T07:50:03.322Z,92.80
2018-12-17T07:52:31.280Z,93.20
2018-12-17T07:54:59.596Z,92.90
2018-12-17T07:57:27.427Z,92.80
2018-12-17T07:59:56.878Z,92.50
2018-12-17T08:02:25.149Z,92.60
2018-12-17T08:04:53.390Z,92.70
2018-12-17T08:07:21.126Z,93.20
2018-12-17T08:09:48.869Z,93.90
2018-12-17T08:12:16.903Z,94.30
2018-12-17T08:14:44.840Z,94.50
2018-12-17T08:17:13.444Z,95.20
2018-12-17T08:19:41.283Z,95.70
2018-12-17T08:22:09.103Z,95.00
2018-12-17T08:24:36.756Z,95.20
2018-12-17T08:27:04.839Z,95.10
2018-12-17T08:29:32.891Z,95.10
2018-12-17T08:32:01.947Z,95.20
2018-12-17T08:34:29.735Z,95.80
2018-12-17T08:36:57.675Z,96.10
2018-12-17T08:39:25.533Z,94.40
2018-12-17T08:41:54.116Z,94.60
2018-12-17T08:44:22.600Z,95.00
2018-12-17T08:46:50.526Z,94.40
2018-12-17T08:49:18.288Z,95.00
2018-12-17T08:51:46.736Z,95.60
2018-12-17T08:54:14.928Z,95.80
2018-12-17T08:56:43.881Z,96.40
2018-12-17T08:59:12.508Z,97.00
2018-12-17T09:01:40.339Z,97.00
2018-12-17T09:04:08.951Z,96.90
2018-12-17T09:06:37.438Z,96.80
2018-12-17T09:09:06.998Z,96.80
2018-12-17T09:11:34.677Z,96.50
2018-12-17T09:14:02.627Z,96.50
2018-12-17T09:16:30.600Z,96.80
2018-12-17T09:18:58.221Z,97.20
2018-12-17T09:21:26.021Z,97.20
2018-12-17T09:23:54.458Z,97.80
2018-12-17T09:26:22.511Z,97.10
2018-12-17T09:28:51.047Z,96.40
2018-12-17T09:31:18.906Z,96.60
2018-12-17T09:33:47.067Z,96.00
2018-12-17T09:36:15.045Z,95.10
2018-12-17T09:38:43.047Z,95.20
2018-12-17T09:41:10.937Z,95.50
2018-12-17T09:43:39.157Z,95.20
2018-12-17T09:46:07.677Z,95.60
2018-12-17T09:48:35.714Z,95.90
2018-12-17T09:51:03.446Z,96.50
2018-12-17T09:53:31.106Z,96.60
2018-12-17T09:55:59.938Z,96.70
2018-12-17T09:58:27.590Z,96.80
2018-12-17T10:00:56.449Z,97.00
2018-12-17T10:03:25.084Z,98.20
2018-12-17T10:05:53.465Z,98.20
2018-12-17T10:08:21.207Z,98.60
2018-12-17T10:10:50.186Z,98.90
2018-12-17T10:13:17.877Z,98.80
2018-12-17T10:15:45.489Z,99.40
2018-12-17T10:18:13.107Z,99.10
2018-12-17T10:20:41.557Z,99.10
2018-12-17T10:23:09.236Z,99.80
2018-12-17T10:25:36.867Z,99.70
2018-12-17T10:28:04.578Z,99.90
2018-12-17T10:30:32.938Z,99.70
2018-12-17T10:33:01.367Z,99.30
2018-12-17T10:35:29.739Z,99.40
2018-12-17T10:37:57.459Z,99.90
2018-12-17T10:40:25.914Z,99.90
2018-12-17T10:42:53.578Z,99.90
2018-12-17T10:45:21.471Z,99.90
2018-12-17T10:47:49.057Z,99.60
2018-12-17T10:50:16.850Z,99.90
2018-12-17T10:52:45.734Z,99.90
2018-12-17T10:55:14.246Z,99.90
2018-12-17T10:57:42.324Z,99.90
2018-12-17T11:00:16.042Z,99.90
2018-12-17T11:02:43.929Z,99.90
2018-12-17T11:05:16.511Z,99.90
2018-12-17T11:07:44.351Z,99.90
2018-12-17T11:10:12.195Z,99.90
2018-12-17T11:12:40.727Z,99.90
2018-12-17T11:15:10.221Z,99.90
2018-12-17T11:17:38.466Z,99.80
2018-12-17T11:20:08.340Z,99.90
2018-12-17T11:22:36.830Z,99.90
2018-12-17T11:25:05.553Z,99.70
2018-12-17T11:27:34.623Z,99.50
2018-12-17T11:30:02.438Z,99.40
2018-12-17T11:32:30.263Z,99.20
2018-12-17T11:34:58.032Z,99.40
2018-12-17T11:37:25.660Z,99.50
2018-12-17T11:39:57.098Z,98.70
2018-12-17T11:42:24.821Z,98.20
2018-12-17T11:44:53.938Z,98.70
2018-12-17T11:47:21.786Z,99.50
2018-12-17T11:49:49.522Z,99.20
2018-12-17T11:52:17.131Z,99.10
2018-12-17T11:54:45.374Z,99.00
2018-12-17T11:57:28.082Z,99.00
2018-12-17T11:59:56.230Z,99.10
2018-12-17T12:02:25.153Z,99.00
2018-12-17T12:04:53.911Z,98.80
2018-12-17T12:07:21.737Z,98.50
2018-12-17T12:09:49.445Z,98.70
2018-12-17T12:12:17.039Z,98.70
2018-12-17T12:14:45.539Z,99.00
2018-12-17T12:17:13.163Z,99.00
2018-12-17T12:19:40.796Z,99.40
2018-12-17T12:22:08.483Z,99.30
2018-12-17T12:24:36.294Z,99.20
2018-12-17T12:27:04.576Z,99.60
2018-12-17T12:29:32.269Z,99.10
2018-12-17T12:32:00.019Z,99.00
2018-12-17T12:34:27.885Z,99.10
2018-12-17T12:36:55.892Z,99.40
2018-12-17T12:39:24.820Z,99.30
2018-12-17T12:41:53.058Z,99.50
2018-12-17T12:44:20.703Z,99.30
2018-12-17T12:46:49.723Z,99.10
2018-12-17T12:49:17.396Z,99.40
2018-12-17T12:51:44.986Z,99.30
2018-12-17T12:54:12.639Z,99.30
2018-12-17T12:56:41.165Z,99.50
2018-12-17T12:59:09.050Z,99.90
2018-12-17T13:01:36.816Z,99.90
2018-12-17T13:04:05.136Z,99.30
2018-12-17T13:06:32.860Z,99.20
2018-12-17T13:09:00.703Z,99.30
2018-12-17T13:11:28.392Z,98.50
2018-12-17T13:13:56.169Z,99.30
2018-12-17T13:16:23.879Z,99.60
2018-12-17T13:18:51.702Z,99.30
2018-12-17T13:21:19.590Z,98.90
2018-12-17T13:23:47.277Z,99.20
2018-12-17T13:26:15.001Z,99.30
2018-12-17T13:28:44.174Z,99.60
2018-12-17T13:31:14.802Z,99.60
2018-12-17T13:33:41.598Z,99.80
2018-12-17T13:36:09.572Z,99.30
2018-12-17T13:38:37.367Z,98.70
2018-12-17T13:41:05.348Z,98.30
2018-12-17T13:43:34.457Z,98.20
2018-12-17T13:46:02.729Z,97.40
2018-12-17T13:48:30.343Z,97.40
2018-12-17T13:51:02.876Z,97.20
2018-12-17T13:53:32.571Z,97.00
2018-12-17T13:56:00.567Z,97.70
2018-12-17T13:58:29.580Z,98.40
2018-12-17T14:00:57.992Z,98.50
2018-12-17T14:03:25.644Z,98.30
2018-12-17T14:05:53.277Z,98.00
2018-12-17T14:08:21.598Z,97.90
2018-12-17T14:10:53.102Z,97.10
2018-12-17T14:13:21.389Z,96.40
2018-12-17T14:15:51.703Z,97.30
2018-12-17T14:18:25.452Z,98.00
2018-12-17T14:20:58.948Z,98.00
2018-12-17T14:23:26.633Z,97.90
2018-12-17T14:25:54.366Z,98.80
2018-12-17T14:28:22.023Z,98.60
2018-12-17T14:30:49.791Z,98.70
2018-12-17T14:33:17.445Z,98.60
2018-12-17T14:36:19.238Z,98.70
2018-12-17T14:38:46.967Z,99.00
2018-12-17T14:41:14.616Z,98.80
2018-12-17T14:43:42.335Z,99.00
2018-12-17T14:46:10.041Z,99.20
2018-12-17T14:48:37.840Z,99.10
2018-12-17T14:51:05.653Z,99.10
2018-12-17T14:53:33.464Z,99.30
2018-12-17T14:56:02.190Z,99.30
2018-12-17T14:58:29.865Z,99.30
2018-12-17T15:00:57.681Z,99.10
2018-12-17T15:03:25.498Z,99.10
2018-12-17T15:05:53.198Z,99.00
2018-12-17T15:08:21.600Z,98.90
2018-12-17T15:10:49.541Z,98.70
2018-12-17T15:13:18.584Z,98.80
2018-12-17T15:15:46.249Z,98.70
2018-12-17T15:18:14.131Z,99.20
2018-12-17T15:20:41.859Z,98.80
2018-12-17T15:23:09.915Z,98.80
2018-12-17T15:25:37.818Z,98.70
2018-12-17T15:28:05.568Z,99.20
2018-12-17T15:30:34.638Z,99.10
2018-12-17T15:33:02.947Z,98.40
2018-12-17T15:35:30.710Z,98.20
2018-12-17T15:37:58.585Z,98.00
2018-12-17T15:40:26.391Z,98.30
2018-12-17T15:42:54.090Z,98.60
2018-12-17T15:45:23.291Z,98.70
2018-12-17T15:47:50.955Z,98.30
2018-12-17T15:50:18.771Z,98.00
2018-12-17T15:52:46.464Z,97.40
2018-12-17T15:55:15.843Z,97.60
2018-12-17T15:57:43.532Z,98.40
2018-12-17T16:00:14.035Z,98.10
2018-12-17T16:02:41.927Z,97.60
2018-12-17T16:05:10.122Z,97.40
2018-12-17T16:07:38.213Z,97.30
2018-12-17T16:10:06.813Z,97.00
2018-12-17T16:12:35.377Z,97.40
2018-12-17T16:15:03.574Z,97.90
2018-12-17T16:17:32.312Z,98.10
2018-12-17T16:20:00.330Z,97.90
2018-12-17T16:22:28.331Z,98.00
2018-12-17T16:24:56.911Z,98.00
2018-12-17T16:27:24.710Z,98.00
2018-12-17T16:29:52.659Z,97.90
2018-12-17T16:32:21.112Z,98.10
2018-12-17T16:34:48.927Z,97.90
2018-12-17T16:37:16.676Z,98.20
2018-12-17T16:39:44.764Z,98.60
2018-12-17T16:42:13.620Z,98.10
2018-12-17T16:44:41.408Z,98.40
2018-12-17T16:47:09.060Z,98.30
2018-12-17T16:49:36.768Z,98.40
2018-12-17T16:52:04.585Z,98.30
2018-12-17T16:54:33.041Z,98.10
2018-12-17T16:57:01.067Z,97.80
2018-12-17T16:59:29.463Z,98.00
2018-12-17T17:01:57.092Z,98.10
2018-12-17T17:04:26.095Z,98.00
2018-12-17T17:06:53.834Z,97.90
2018-12-17T17:09:21.463Z,97.80
2018-12-17T17:11:50.488Z,97.80
2018-12-17T17:14:18.285Z,97.90
2018-12-17T17:16:45.950Z,97.90
2018-12-17T17:19:14.977Z,97.50
2018-12-17T17:21:42.611Z,97.80
2018-12-17T17:24:10.803Z,97.70
2018-12-17T17:26:39.055Z,97.90
2018-12-17T17:29:06.990Z,97.90
2018-12-17T17:31:35.065Z,97.90
2018-12-17T17:34:02.940Z,98.10
2018-12-17T17:36:30.880Z,98.10
2018-12-17T17:38:58.555Z,97.90
2018-12-17T17:41:27.675Z,97.60
2018-12-17T17:43:55.806Z,97.60
2018-12-17T17:46:24.543Z,97.40
2018-12-17T17:48:53.093Z,97.90
2018-12-17T17:51:20.978Z,97.90
2018-12-17T17:53:48.758Z,98.00
2018-12-17T17:56:17.573Z,98.10
2018-12-17T17:58:45.889Z,98.30
2018-12-17T18:01:13.998Z,98.30
2018-12-17T18:03:41.851Z,98.60
2018-12-17T18:06:16.087Z,98.60
2018-12-17T18:08:40.044Z,98.30
2018-12-17T18:11:07.999Z,98.30
2018-12-17T18:13:35.759Z,98.30
2018-12-17T18:16:04.544Z,98.00
2018-12-17T18:18:33.050Z,98.20
2018-12-17T18:21:01.599Z,98.10
2018-12-17T18:23:29.682Z,98.10
2018-12-17T18:25:59.999Z,98.10
2018-12-17T18:28:28.101Z,97.90
2018-12-17T18:30:56.972Z,98.00
2018-12-17T18:33:25.131Z,98.10
2018-12-17T18:35:53.197Z,98.00
2018-12-17T18:38:21.034Z,97.90
2018-12-17T18:40:49.591Z,98.00
2018-12-17T18:43:17.413Z,98.40
2018-12-17T18:45:45.393Z,98.10
2018-12-17T18:48:13.131Z,98.00
2018-12-17T18:50:41.531Z,98.20
2018-12-17T18:53:10.198Z,98.10
2018-12-17T18:55:37.991Z,98.10
2018-12-17T18:58:05.788Z,97.90
2018-12-17T19:00:33.486Z,97.70
2018-12-17T19:03:01.895Z,97.90
2018-12-17T19:05:30.312Z,98.00
2018-12-17T19:07:58.853Z,98.10
2018-12-17T19:10:31.206Z,98.30
2018-12-17T19:13:00.211Z,98.40
2018-12-17T19:15:29.278Z,98.10
2018-12-17T19:17:57.207Z,98.20
2018-12-17T19:20:24.980Z,98.10
2018-12-17T19:22:54.167Z,98.10
2018-12-17T19:25:21.867Z,98.10
2018-12-17T19:27:50.354Z,98.10
2018-12-17T19:30:19.258Z,98.00
2018-12-17T19:32:47.696Z,97.80
2018-12-17T19:35:15.417Z,97.50
2018-12-17T19:37:43.985Z,97.50
2018-12-17T19:40:12.519Z,97.20
2018-12-17T19:42:41.458Z,97.10
2018-12-17T19:45:09.859Z,96.90
2018-12-17T19:47:37.902Z,96.90
2018-12-17T19:50:06.789Z,96.40
2018-12-17T19:52:34.698Z,96.40
2018-12-17T19:55:02.657Z,96.50
2018-12-17T19:57:31.124Z,96.70
2018-12-17T19:59:59.488Z,96.40
2018-12-17T20:02:28.698Z,96.40
2018-12-17T20:04:56.846Z,96.30
2018-12-17T20:07:24.560Z,96.40
2018-12-17T20:09:52.471Z,96.50
2018-12-17T20:12:21.071Z,96.00
2018-12-17T20:14:48.955Z,95.80
2018-12-17T20:17:17.439Z,96.60
2018-12-17T20:19:45.181Z,96.70
2018-12-17T20:22:12.890Z,96.60
2018-12-17T20:24:40.807Z,97.20
2018-12-17T20:27:08.547Z,97.40
2018-12-17T20:29:37.782Z,96.50
2018-12-17T20:32:05.709Z,96.50
2018-12-17T20:34:33.482Z,97.10
2018-12-17T20:37:01.396Z,97.50
2018-12-17T20:39:29.113Z,97.70
2018-12-17T20:41:56.966Z,97.50
2018-12-17T20:44:25.313Z,98.30
2018-12-17T20:46:53.492Z,98.20
2018-12-17T20:49:21.229Z,97.80
2018-12-17T20:51:49.386Z,97.10
2018-12-17T20:54:17.146Z,96.60
2018-12-17T20:56:45.232Z,96.60
2018-12-17T20:59:12.951Z,96.50
2018-12-17T21:01:40.827Z,96.80
2018-12-17T21:04:08.692Z,97.00
2018-12-17T21:06:36.672Z,97.20
2018-12-17T21:09:07.599Z,96.80
2018-12-17T21:11:35.380Z,96.80
2018-12-17T21:14:03.843Z,96.70
2018-12-17T21:16:31.786Z,96.60
2018-12-17T21:18:59.569Z,96.40
2018-12-17T21:21:27.261Z,96.30
2018-12-17T21:23:55.002Z,96.40
2018-12-17T21:26:22.778Z,96.50
2018-12-17T21:28:50.608Z,96.30
2018-12-17T21:31:18.373Z,96.30
2018-12-17T21:33:46.118Z,96.60
2018-12-17T21:36:15.369Z,96.60
2018-12-17T21:38:42.962Z,96.40
2018-12-17T21:41:10.967Z,96.50
2018-12-17T21:43:38.723Z,96.30
2018-12-17T21:46:06.561Z,96.20
2018-12-17T21:48:34.946Z,96.30
2018-12-17T21:51:02.745Z,96.10
2018-12-17T21:53:30.401Z,96.20
2018-12-17T21:55:58.009Z,96.10
2018-12-17T21:58:25.630Z,96.00
2018-12-17T22:00:53.326Z,96.20
2018-12-17T22:03:22.197Z,96.30
2018-12-17T22:05:50.451Z,96.80
2018-12-17T22:08:18.219Z,97.00
2018-12-17T22:10:45.907Z,96.60
2018-12-17T22:13:15.014Z,97.20
2018-12-17T22:15:42.654Z,96.90
2018-12-17T22:18:10.274Z,97.00
2018-12-17T22:20:37.874Z,96.60
2018-12-17T22:23:05.595Z,96.70
2018-12-17T22:25:33.473Z,96.30
2018-12-17T22:28:01.294Z,96.30
2018-12-17T22:30:28.911Z,96.70
2018-12-17T22:32:57.300Z,96.50
2018-12-17T22:35:24.990Z,96.20
2018-12-17T22:37:52.590Z,96.20
2018-12-17T22:40:20.348Z,96.30
2018-12-17T22:42:48.055Z,96.60
2018-12-17T22:45:15.771Z,96.00
2018-12-17T22:47:43.364Z,96.00
2018-12-17T22:50:10.998Z,95.90
2018-12-17T22:52:38.733Z,95.90
2018-12-17T22:55:07.422Z,96.70
2018-12-17T22:57:35.344Z,96.70
2018-12-17T23:00:04.972Z,96.90
2018-12-17T23:02:32.574Z,96.70
2018-12-17T23:05:00.963Z,96.80
2018-12-17T23:07:28.706Z,96.60
2018-12-17T23:10:07.774Z,96.40
2018-12-17T23:12:46.994Z,96.70
2018-12-17T23:15:26.258Z,96.90
2018-12-17T23:17:53.622Z,96.60
2018-12-17T23:20:22.240Z,96.60
2018-12-17T23:22:50.614Z,96.60
2018-12-17T23:25:20.836Z,96.50
2018-12-17T23:27:50.226Z,96.10
2018-12-17T23:30:20.320Z,95.90
2018-12-17T23:32:48.630Z,95.90
2018-12-17T23:35:16.947Z,96.80
2018-12-17T23:37:44.770Z,96.60
2018-12-17T23:40:12.573Z,96.00
2018-12-17T23:42:40.195Z,96.10
2018-12-17T23:45:08.059Z,95.90
2018-12-17T23:47:35.762Z,95.90
2018-12-17T23:50:05.496Z,95.60
2018-12-17T23:52:33.171Z,96.20
2018-12-17T23:55:01.209Z,95.30
2018-12-17T23:57:28.867Z,95.50
2018-12-17T23:59:56.594Z,95.50
